createdAt,value
2023-05-05T00:00:00.684Z,16.78
2023-05-05T00:03:02.852Z,17.19
2023-05-05T00:06:05.669Z,16.99
2023-05-05T00:09:07.783Z,17.16
2023-05-05T00:12:09.680Z,16.81
2023-05-05T00:15:11.642Z,16.46
2023-05-05T00:18:14.924Z,16.01
2023-05-05T00:21:16.973Z,16.05
2023-05-05T00:24:18.991Z,16.85
2023-05-05T00:27:20.969Z,16.57
2023-05-05T00:30:23.191Z,16.08
2023-05-05T00:33:25.809Z,15.09
2023-05-05T00:36:28.761Z,15.79
2023-05-05T00:39:30.787Z,15.25
2023-05-05T00:42:40.444Z,15.28
2023-05-05T00:45:44.264Z,15.38
2023-05-05T00:48:46.219Z,15.88
2023-05-05T00:51:48.180Z,16.42
2023-05-05T00:54:50.375Z,16.21
2023-05-05T00:57:52.359Z,16.32
2023-05-05T01:00:54.306Z,16.56
2023-05-05T01:03:56.265Z,16.63
2023-05-05T01:07:13.436Z,15.33
2023-05-05T01:10:21.950Z,15.49
2023-05-05T01:13:30.279Z,16.28
2023-05-05T01:16:33.405Z,15.76
2023-05-05T01:19:55.649Z,16.10
2023-05-05T01:22:58.791Z,16.31
2023-05-05T01:26:21.477Z,16.09
2023-05-05T01:29:29.229Z,15.78
2023-05-05T01:32:36.255Z,15.88
2023-05-05T01:35:41.862Z,15.98
2023-05-05T01:38:44.074Z,16.19
2023-05-05T01:41:47.329Z,16.17
2023-05-05T01:44:49.268Z,16.12
2023-05-05T01:47:51.404Z,16.06
2023-05-05T01:50:53.479Z,15.91
2023-05-05T01:53:57.195Z,15.93
2023-05-05T01:56:59.152Z,15.98
2023-05-05T02:00:01.771Z,16.11
2023-05-05T02:03:04.512Z,15.71
2023-05-05T02:06:06.556Z,15.64
2023-05-05T02:09:09.799Z,15.69
2023-05-05T02:12:11.788Z,15.16
2023-05-05T02:15:14.514Z,15.04
2023-05-05T02:18:17.020Z,14.69
2023-05-05T02:21:20.164Z,14.47
2023-05-05T02:24:22.025Z,14.49
2023-05-05T02:27:24.010Z,15.26
2023-05-05T02:30:25.908Z,15.30
2023-05-05T02:33:28.318Z,15.43
2023-05-05T02:36:30.242Z,15.58
2023-05-05T02:39:33.319Z,15.16
2023-05-05T02:42:36.228Z,14.34
2023-05-05T02:45:38.187Z,14.54
2023-05-05T02:48:40.060Z,15.26
2023-05-05T02:51:42.632Z,14.60
2023-05-05T02:54:44.567Z,15.12
2023-05-05T02:58:06.892Z,14.78
2023-05-05T03:01:27.784Z,15.05
2023-05-05T03:04:32.065Z,15.48
2023-05-05T03:07:47.941Z,15.35
2023-05-05T03:11:08.473Z,14.77
2023-05-05T03:14:12.142Z,14.62
2023-05-05T03:17:14.073Z,14.95
2023-05-05T03:20:16.049Z,15.00
2023-05-05T03:23:21.105Z,15.01
2023-05-05T03:26:23.160Z,14.51
2023-05-05T03:29:25.534Z,14.44
2023-05-05T03:32:27.690Z,14.93
2023-05-05T03:35:29.674Z,15.32
2023-05-05T03:38:31.876Z,14.36
2023-05-05T03:41:33.808Z,14.86
2023-05-05T03:44:35.847Z,14.51
2023-05-05T03:47:37.755Z,14.02
2023-05-05T03:50:39.734Z,14.56
2023-05-05T03:53:41.946Z,14.41
2023-05-05T03:56:43.928Z,14.56
2023-05-05T03:59:46.000Z,15.03
2023-05-05T04:02:48.086Z,15.28
2023-05-05T04:05:49.998Z,15.15
2023-05-05T04:08:51.974Z,15.67
2023-05-05T04:11:53.820Z,14.87
2023-05-05T04:14:55.784Z,15.25
2023-05-05T04:17:57.748Z,14.17
2023-05-05T04:20:59.802Z,14.70
2023-05-05T04:24:01.892Z,15.43
2023-05-05T04:27:03.842Z,15.12
2023-05-05T04:30:07.035Z,15.17
2023-05-05T04:33:09.447Z,15.01
2023-05-05T04:36:11.801Z,15.89
2023-05-05T04:39:13.766Z,16.31
2023-05-05T04:42:15.978Z,14.40
2023-05-05T04:45:17.801Z,15.42
2023-05-05T04:48:21.024Z,15.92
2023-05-05T04:51:22.920Z,16.19
2023-05-05T04:54:24.856Z,15.89
2023-05-05T04:57:26.812Z,16.32
2023-05-05T05:00:28.723Z,16.87
2023-05-05T05:03:32.018Z,15.90
2023-05-05T05:06:34.414Z,16.61
2023-05-05T05:09:36.243Z,17.52
2023-05-05T05:12:38.370Z,17.45
2023-05-05T05:15:40.811Z,17.31
2023-05-05T05:18:42.949Z,17.54
2023-05-05T05:21:44.978Z,18.81
2023-05-05T05:24:47.001Z,18.90
2023-05-05T05:28:02.323Z,20.35
2023-05-05T05:31:11.153Z,20.12
2023-05-05T05:34:13.259Z,19.10
2023-05-05T05:37:15.091Z,20.36
2023-05-05T05:40:17.057Z,20.18
2023-05-05T05:43:18.999Z,20.10
2023-05-05T05:46:21.453Z,20.19
2023-05-05T05:49:23.551Z,20.76
2023-05-05T05:52:25.592Z,21.33
2023-05-05T05:55:27.543Z,22.10
2023-05-05T05:58:29.448Z,22.53
2023-05-05T06:01:31.364Z,20.42
2023-05-05T06:04:33.436Z,22.15
2023-05-05T06:07:35.361Z,22.88
2023-05-05T06:10:37.273Z,21.31
2023-05-05T06:13:39.298Z,21.75
2023-05-05T06:16:41.308Z,20.69
2023-05-05T06:19:43.475Z,20.28
2023-05-05T06:22:45.417Z,19.88
2023-05-05T06:25:47.723Z,20.01
2023-05-05T06:28:49.653Z,20.80
2023-05-05T06:31:51.938Z,22.00
2023-05-05T06:34:53.940Z,21.52
2023-05-05T06:37:55.910Z,21.09
2023-05-05T06:41:00.985Z,20.24
2023-05-05T06:44:02.972Z,20.98
2023-05-05T06:47:04.933Z,22.06
2023-05-05T06:50:07.918Z,23.78
2023-05-05T06:53:10.125Z,23.09
2023-05-05T06:56:12.101Z,24.69
2023-05-05T06:59:13.975Z,25.17
2023-05-05T07:02:17.252Z,24.88
2023-05-05T07:05:19.284Z,24.14
2023-05-05T07:08:21.292Z,25.17
2023-05-05T07:11:23.301Z,23.41
2023-05-05T07:14:25.225Z,24.07
2023-05-05T07:17:27.510Z,23.48
2023-05-05T07:20:29.684Z,24.87
2023-05-05T07:23:31.701Z,24.11
2023-05-05T07:26:33.640Z,25.58
2023-05-05T07:29:36.033Z,26.62
2023-05-05T07:32:37.924Z,26.65
2023-05-05T07:35:40.001Z,25.57
2023-05-05T07:38:41.926Z,23.73
2023-05-05T07:41:44.336Z,23.49
2023-05-05T07:44:46.770Z,23.93
2023-05-05T07:47:48.915Z,27.26
2023-05-05T07:50:52.572Z,26.68
2023-05-05T07:53:55.212Z,25.66
2023-05-05T07:56:57.520Z,27.21
2023-05-05T07:59:59.814Z,25.67
2023-05-05T08:03:01.893Z,25.33
2023-05-05T08:06:10.965Z,27.18
2023-05-05T08:09:13.162Z,27.13
2023-05-05T08:12:17.976Z,27.76
2023-05-05T08:15:20.100Z,28.43
2023-05-05T08:18:22.181Z,27.32
2023-05-05T08:21:24.108Z,26.05
2023-05-05T08:24:26.039Z,25.77
2023-05-05T08:27:27.874Z,27.96
2023-05-05T08:30:32.444Z,28.48
2023-05-05T08:33:34.388Z,29.93
2023-05-05T08:36:36.740Z,27.34
2023-05-05T08:39:38.859Z,28.25
2023-05-05T08:42:41.709Z,26.16
2023-05-05T08:45:43.810Z,28.63
2023-05-05T08:48:46.211Z,26.82
2023-05-05T08:51:48.528Z,28.18
2023-05-05T08:54:52.004Z,29.24
2023-05-05T08:57:57.822Z,30.10
2023-05-05T09:01:01.832Z,31.04
2023-05-05T09:04:04.493Z,27.02
2023-05-05T09:07:06.423Z,27.87
2023-05-05T09:10:08.986Z,31.51
2023-05-05T09:13:11.201Z,30.70
2023-05-05T09:16:32.657Z,31.31
2023-05-05T09:19:34.522Z,29.24
2023-05-05T09:22:36.834Z,28.59
2023-05-05T09:25:39.359Z,28.77
2023-05-05T09:28:42.095Z,28.84
2023-05-05T09:31:43.996Z,28.52
2023-05-05T09:34:56.792Z,30.92
2023-05-05T09:37:58.967Z,30.89
2023-05-05T09:41:00.832Z,32.38
2023-05-05T09:44:02.731Z,32.25
2023-05-05T09:47:09.386Z,32.29
2023-05-05T09:50:16.416Z,30.64
2023-05-05T09:53:18.526Z,28.74
2023-05-05T09:56:20.896Z,28.55
2023-05-05T09:59:23.270Z,28.79
2023-05-05T10:02:35.213Z,29.86
2023-05-05T10:05:46.828Z,30.80
2023-05-05T10:08:51.206Z,28.51
2023-05-05T10:11:53.466Z,28.55
2023-05-05T10:14:55.970Z,30.06
2023-05-05T10:18:06.806Z,30.71
2023-05-05T10:21:09.872Z,31.75
2023-05-05T10:24:12.462Z,30.18
2023-05-05T10:27:19.887Z,32.11
2023-05-05T10:30:28.615Z,29.64
2023-05-05T10:33:40.435Z,29.73
2023-05-05T10:36:42.972Z,27.71
2023-05-05T10:39:45.143Z,30.22
2023-05-05T10:42:48.243Z,30.26
2023-05-05T10:45:50.294Z,29.09
2023-05-05T10:49:04.592Z,28.19
2023-05-05T10:52:19.174Z,29.06
2023-05-05T10:55:28.576Z,28.39
2023-05-05T10:58:47.059Z,27.17
2023-05-05T11:01:57.952Z,27.66
2023-05-05T11:05:14.496Z,27.42
2023-05-05T11:08:26.569Z,27.38
2023-05-05T11:11:48.295Z,30.82
2023-05-05T11:15:08.967Z,32.54
2023-05-05T11:18:28.447Z,33.84
2023-05-05T11:21:30.315Z,33.35
2023-05-05T11:24:32.293Z,30.36
2023-05-05T11:28:04.218Z,31.31
2023-05-05T11:31:06.366Z,31.50
2023-05-05T11:34:23.943Z,32.68
2023-05-05T11:37:27.153Z,32.47
2023-05-05T11:40:29.569Z,31.50
2023-05-05T11:43:31.718Z,32.96
2023-05-05T11:46:33.715Z,35.93
2023-05-05T11:49:36.399Z,34.44
2023-05-05T11:52:38.869Z,33.19
2023-05-05T11:55:43.264Z,35.17
2023-05-05T11:58:45.716Z,35.12
2023-05-05T12:01:47.684Z,34.04
2023-05-05T12:04:50.240Z,32.37
2023-05-05T12:07:56.518Z,34.51
2023-05-05T12:11:11.180Z,30.91
2023-05-05T12:14:13.475Z,28.42
2023-05-05T12:17:15.470Z,31.09
2023-05-05T12:20:17.320Z,33.25
2023-05-05T12:23:19.266Z,32.55
2023-05-05T12:26:28.225Z,31.21
2023-05-05T12:29:30.112Z,34.43
2023-05-05T12:32:32.818Z,34.76
2023-05-05T12:35:34.911Z,33.04
2023-05-05T12:38:36.862Z,29.67
2023-05-05T12:41:38.832Z,29.45
2023-05-05T12:44:40.980Z,28.27
2023-05-05T12:47:44.758Z,29.18
2023-05-05T12:50:46.808Z,29.02
2023-05-05T12:53:52.475Z,28.51
2023-05-05T12:56:54.387Z,27.86
2023-05-05T12:59:56.991Z,27.63
2023-05-05T13:02:59.307Z,28.14
2023-05-05T13:06:01.682Z,27.67
2023-05-05T13:09:04.284Z,27.28
2023-05-05T13:12:08.373Z,26.14
2023-05-05T13:15:10.921Z,25.53
2023-05-05T13:18:13.005Z,26.30
2023-05-05T13:21:15.139Z,26.33
2023-05-05T13:27:22.041Z,27.19
2023-05-05T13:30:23.991Z,26.70
2023-05-05T13:33:26.288Z,27.28
2023-05-05T13:36:28.211Z,25.32
2023-05-05T13:39:30.139Z,25.67
2023-05-05T13:42:32.091Z,26.67
2023-05-05T13:45:34.049Z,27.09
2023-05-05T13:48:36.262Z,26.51
2023-05-05T13:51:39.000Z,25.88
2023-05-05T13:54:40.922Z,26.11
2023-05-05T13:57:43.261Z,26.46
2023-05-05T14:00:45.297Z,25.88
2023-05-05T14:03:49.545Z,26.16
2023-05-05T14:06:51.599Z,27.06
2023-05-05T14:09:53.843Z,26.44
2023-05-05T14:12:55.740Z,26.92
2023-05-05T14:15:58.525Z,27.18
2023-05-05T14:19:00.506Z,26.00
2023-05-05T14:22:02.400Z,26.10
2023-05-05T14:25:04.496Z,25.70
2023-05-05T14:28:06.497Z,26.95
2023-05-05T14:31:08.684Z,26.66
2023-05-05T14:34:10.560Z,25.23
2023-05-05T14:37:12.591Z,24.79
2023-05-05T14:40:14.504Z,24.82
2023-05-05T14:43:16.432Z,25.88
2023-05-05T14:46:18.989Z,25.89
2023-05-05T14:49:21.055Z,25.62
2023-05-05T14:52:22.928Z,25.35
2023-05-05T14:55:25.172Z,24.86
2023-05-05T14:58:27.190Z,26.46
2023-05-05T15:01:29.508Z,25.59
2023-05-05T15:04:31.508Z,26.87
2023-05-05T15:07:33.710Z,25.86
2023-05-05T15:10:35.560Z,25.42
2023-05-05T15:13:40.179Z,24.84
2023-05-05T15:16:42.106Z,25.23
2023-05-05T15:19:44.004Z,26.23
2023-05-05T15:22:47.410Z,25.07
2023-05-05T15:25:50.034Z,25.26
2023-05-05T15:28:52.801Z,25.24
2023-05-05T15:31:54.750Z,25.88
2023-05-05T15:34:56.738Z,26.11
2023-05-05T15:37:58.601Z,25.52
2023-05-05T15:41:00.601Z,25.48
2023-05-05T15:44:04.727Z,26.04
2023-05-05T15:47:06.911Z,25.60
2023-05-05T15:50:09.181Z,25.63
2023-05-05T15:53:11.084Z,26.37
2023-05-05T15:56:13.058Z,25.49
2023-05-05T15:59:15.148Z,25.56
2023-05-05T16:02:17.469Z,25.53
2023-05-05T16:05:21.422Z,25.57
2023-05-05T16:08:24.866Z,25.08
2023-05-05T16:11:27.164Z,25.96
2023-05-05T16:14:29.295Z,26.23
2023-05-05T16:17:31.402Z,25.52
2023-05-05T16:20:33.430Z,25.77
2023-05-05T16:23:35.493Z,25.35
2023-05-05T16:26:37.473Z,24.99
2023-05-05T16:29:39.548Z,25.86
2023-05-05T16:32:42.259Z,24.65
2023-05-05T16:35:45.690Z,25.00
2023-05-05T16:38:48.021Z,25.37
2023-05-05T16:41:50.232Z,25.38
2023-05-05T16:44:52.264Z,26.21
2023-05-05T16:47:55.495Z,25.70
2023-05-05T16:50:58.044Z,26.17
2023-05-05T16:54:00.177Z,25.93
2023-05-05T16:57:03.720Z,26.02
2023-05-05T17:00:06.596Z,25.85
2023-05-05T17:03:08.502Z,26.04
2023-05-05T17:06:12.494Z,25.73
2023-05-05T17:09:14.574Z,25.53
2023-05-05T17:12:16.443Z,25.82
2023-05-05T17:15:18.494Z,24.91
2023-05-05T17:18:23.006Z,25.44
2023-05-05T17:21:24.988Z,25.26
2023-05-05T17:24:26.870Z,24.27
2023-05-05T17:27:28.898Z,25.04
2023-05-05T17:30:30.946Z,24.42
2023-05-05T17:33:32.810Z,25.14
2023-05-05T17:36:35.488Z,25.39
2023-05-05T17:39:37.343Z,25.09
2023-05-05T17:42:39.189Z,25.12
2023-05-05T17:45:42.326Z,24.59
2023-05-05T17:48:44.513Z,24.88
2023-05-05T17:51:46.362Z,24.75
2023-05-05T17:54:49.345Z,24.57
2023-05-05T17:57:51.458Z,24.56
2023-05-05T18:00:53.400Z,23.99
2023-05-05T18:03:55.490Z,23.63
2023-05-05T18:06:57.392Z,23.72
2023-05-05T18:09:59.279Z,23.31
2023-05-05T18:13:01.593Z,24.39
2023-05-05T18:16:03.874Z,24.15
2023-05-05T18:19:06.132Z,23.90
2023-05-05T18:22:08.071Z,23.92
2023-05-05T18:25:10.316Z,23.23
2023-05-05T18:28:12.529Z,23.13
2023-05-05T18:31:14.517Z,23.34
2023-05-05T18:34:16.953Z,23.59
2023-05-05T18:37:19.081Z,24.05
2023-05-05T18:40:21.724Z,23.88
2023-05-05T18:43:23.542Z,23.80
2023-05-05T18:46:25.403Z,23.49
2023-05-05T18:49:30.310Z,23.65
2023-05-05T18:52:33.322Z,23.39
2023-05-05T18:55:35.291Z,23.18
2023-05-05T18:58:37.176Z,23.45
2023-05-05T19:01:39.026Z,23.49
2023-05-05T19:04:41.680Z,23.47
2023-05-05T19:07:43.650Z,23.11
2023-05-05T19:10:45.917Z,23.12
2023-05-05T19:13:47.775Z,22.62
2023-05-05T19:16:49.735Z,22.57
2023-05-05T19:19:51.763Z,23.18
2023-05-05T19:22:53.784Z,22.02
2023-05-05T19:25:55.864Z,21.94
2023-05-05T19:28:57.772Z,21.56
2023-05-05T19:31:59.787Z,21.42
2023-05-05T19:35:01.943Z,22.31
2023-05-05T19:38:03.865Z,21.80
2023-05-05T19:41:05.713Z,22.07
2023-05-05T19:44:07.556Z,21.20
2023-05-05T19:47:10.948Z,21.60
2023-05-05T19:50:15.421Z,21.32
2023-05-05T19:53:17.764Z,21.54
2023-05-05T19:56:19.597Z,21.40
2023-05-05T19:59:21.519Z,21.41
2023-05-05T20:02:26.505Z,21.28
2023-05-05T20:05:28.528Z,21.02
2023-05-05T20:08:30.647Z,21.27
2023-05-05T20:11:32.626Z,20.87
2023-05-05T20:14:34.757Z,20.74
2023-05-05T20:17:36.904Z,20.78
2023-05-05T20:20:38.964Z,20.57
2023-05-05T20:23:42.829Z,20.87
2023-05-05T20:26:47.015Z,20.76
2023-05-05T20:29:48.854Z,20.75
2023-05-05T20:32:50.984Z,20.85
2023-05-05T20:35:52.843Z,20.45
2023-05-05T20:38:54.961Z,20.84
2023-05-05T20:41:56.927Z,20.99
2023-05-05T20:44:59.809Z,21.32
2023-05-05T20:48:02.122Z,20.71
2023-05-05T20:51:04.566Z,20.65
2023-05-05T20:54:06.490Z,21.00
2023-05-05T20:57:08.538Z,20.92
2023-05-05T21:00:10.834Z,19.91
2023-05-05T21:03:13.111Z,19.55
2023-05-05T21:06:15.090Z,19.74
2023-05-05T21:09:17.233Z,20.33
2023-05-05T21:12:19.121Z,20.66
2023-05-05T21:15:21.101Z,20.15
2023-05-05T21:18:25.812Z,20.36
2023-05-05T21:21:27.769Z,20.30
2023-05-05T21:24:29.678Z,20.53
2023-05-05T21:27:31.990Z,20.08
2023-05-05T21:30:33.852Z,20.45
2023-05-05T21:33:35.896Z,20.30
2023-05-05T21:36:38.752Z,19.19
2023-05-05T21:39:41.741Z,19.02
2023-05-05T21:42:43.756Z,19.09
2023-05-05T21:45:45.803Z,19.08
2023-05-05T21:48:47.979Z,18.79
2023-05-05T21:51:50.149Z,19.06
2023-05-05T21:54:52.015Z,18.72
2023-05-05T21:57:53.896Z,18.96
2023-05-05T22:00:55.938Z,19.31
2023-05-05T22:03:58.052Z,19.45
2023-05-05T22:07:00.068Z,18.88
2023-05-05T22:10:03.709Z,18.39
2023-05-05T22:13:05.665Z,18.51
2023-05-05T22:16:08.115Z,18.52
2023-05-05T22:19:09.999Z,18.87
2023-05-05T22:22:11.947Z,18.66
2023-05-05T22:25:13.781Z,18.43
2023-05-05T22:28:15.675Z,19.04
2023-05-05T22:31:17.520Z,18.97
2023-05-05T22:34:22.845Z,18.92
2023-05-05T22:37:25.462Z,18.93
2023-05-05T22:40:28.741Z,18.32
2023-05-05T22:43:30.590Z,18.93
2023-05-05T22:46:32.800Z,18.90
2023-05-05T22:49:35.160Z,18.76
2023-05-05T22:52:37.443Z,18.93
2023-05-05T22:55:39.224Z,18.53
2023-05-05T22:58:41.299Z,18.55
2023-05-05T23:01:43.216Z,18.12
2023-05-05T23:04:47.720Z,17.97
2023-05-05T23:07:49.748Z,17.54
2023-05-05T23:10:51.741Z,17.64
2023-05-05T23:13:56.372Z,17.86
2023-05-05T23:16:58.438Z,16.93
2023-05-05T23:20:00.520Z,16.74
2023-05-05T23:23:02.538Z,17.71
2023-05-05T23:26:04.581Z,17.91
2023-05-05T23:29:06.462Z,17.99
2023-05-05T23:32:08.322Z,18.15
2023-05-05T23:35:11.187Z,18.19
2023-05-05T23:38:13.366Z,17.34
2023-05-05T23:41:15.248Z,16.90
2023-05-05T23:44:17.107Z,16.65
2023-05-05T23:47:19.066Z,16.38
2023-05-05T23:50:21.057Z,16.64
2023-05-05T23:53:23.022Z,17.00
2023-05-05T23:56:24.890Z,17.70
2023-05-05T23:59:27.140Z,17.96
